Time;durP1;ratioP1;P1;durP2;ratioP2;P2;SDS_P1;SDS_P2;PMS_P1;PMS_P2;Temp;Humidity;BMP_temperature;BMP_pressure;BME280_temperature;BME280_humidity;BME280_pressure;Samples;Min_cycle;Max_cycle;Signal;HPM_P1;HPM_P2
2022/08/23 00:00:48;;;;;;;0.00;0.00;;;;;;;;;;5055443;28;20070;-78
2022/08/23 00:03:14;;;;;;;0.00;0.00;;;;;;;;;;5073084;28;20498;-78
2022/08/23 00:05:40;;;;;;;0.00;0.00;;;;;;;;;;5055079;28;20045;-78
2022/08/23 00:08:06;;;;;;;0.00;0.00;;;;;;;;;;5073373;28;20032;-78
2022/08/23 00:10:32;;;;;;;0.00;0.00;;;;;;;;;;5073196;28;20178;-82
2022/08/23 00:12:58;;;;;;;0.00;0.00;;;;;;;;;;5055187;28;20074;-79
2022/08/23 00:15:24;;;;;;;0.00;0.00;;;;;;;;;;5055048;28;20094;-79
2022/08/23 00:17:50;;;;;;;0.00;0.00;;;;;;;;;;5055235;28;20434;-79
2022/08/23 00:20:19;;;;;;;0.00;0.00;;;;;;;;;;5073027;28;20040;-79
2022/08/23 00:22:45;;;;;;;0.00;0.00;;;;;;;;;;5072943;28;20041;-78
2022/08/23 00:25:11;;;;;;;0.00;0.00;;;;;;;;;;5055486;28;20074;-78
2022/08/23 00:27:37;;;;;;;0.00;0.00;;;;;;;;;;5054977;28;20127;-78
2022/08/23 00:30:05;;;;;;;0.00;0.00;;;;;;;;;;5055007;28;20131;-79
2022/08/23 00:32:32;;;;;;;0.00;0.00;;;;;;;;;;5054905;28;20494;-78
2022/08/23 00:34:59;;;;;;;0.00;0.00;;;;;;;;;;5072972;28;20131;-78
2022/08/23 00:37:25;;;;;;;0.00;0.00;;;;;;;;;;5072909;28;20040;-79
2022/08/23 00:39:52;;;;;;;0.00;0.00;;;;;;;;;;5054820;28;20127;-79
2022/08/23 00:47:58;;;;;;;0.00;0.00;;;;;;;;;;5072820;28;20045;-78
2022/08/23 00:50:31;;;;;;;0.00;0.00;;;;;;;;;;5072901;28;20115;-78
2022/08/23 00:53:04;;;;;;;0.00;0.00;;;;;;;;;;5072638;28;20113;-79
2022/08/23 00:55:30;;;;;;;0.00;0.00;;;;;;;;;;5054823;28;20049;-79
2022/08/23 00:57:57;;;;;;;0.00;0.00;;;;;;;;;;5057944;28;20500;-79
2022/08/23 01:00:24;;;;;;;0.00;0.00;;;;;;;;;;5076731;28;20090;-79
2022/08/23 01:02:50;;;;;;;0.00;0.00;;;;;;;;;;5058549;28;20040;-78
2022/08/23 01:05:18;;;;;;;0.00;0.00;;;;;;;;;;5058710;28;20040;-78
2022/08/23 01:07:57;;;;;;;0.00;0.00;;;;;;;;;;5076630;28;20045;-78
2022/08/23 01:10:28;;;;;;;0.00;0.00;;;;;;;;;;5059005;28;20414;-78
2022/08/23 01:12:57;;;;;;;0.00;0.00;;;;;;;;;;5076542;28;20044;-79
2022/08/23 01:15:30;;;;;;;0.00;0.00;;;;;;;;;;5058364;28;20041;-78
2022/08/23 01:18:01;;;;;;;0.00;0.00;;;;;;;;;;5076233;28;20431;-78
2022/08/23 01:20:27;;;;;;;0.00;0.00;;;;;;;;;;5058721;28;20093;-78
2022/08/23 01:23:04;;;;;;;0.00;0.00;;;;;;;;;;5075917;28;20444;-77
2022/08/23 01:25:31;;;;;;;0.00;0.00;;;;;;;;;;5076525;28;20079;-78
2022/08/23 01:27:59;;;;;;;0.00;0.00;;;;;;;;;;5058211;28;20492;-78
2022/08/23 01:30:26;;;;;;;0.00;0.00;;;;;;;;;;5058233;28;20053;-79
2022/08/23 01:32:54;;;;;;;0.00;0.00;;;;;;;;;;5058114;28;20048;-79
2022/08/23 01:35:23;;;;;;;0.00;0.00;;;;;;;;;;5075866;28;20040;-78
2022/08/23 01:37:50;;;;;;;0.00;0.00;;;;;;;;;;5058057;28;20040;-79
2022/08/23 01:40:16;;;;;;;0.00;0.00;;;;;;;;;;5076239;28;20036;-78
2022/08/23 01:42:42;;;;;;;0.00;0.00;;;;;;;;;;5075838;28;20040;-79
2022/08/23 01:45:10;;;;;;;0.00;0.00;;;;;;;;;;5057833;28;20047;-78
2022/08/23 01:47:36;;;;;;;0.00;0.00;;;;;;;;;;5058012;28;20131;-78
2022/08/23 01:50:03;;;;;;;0.00;0.00;;;;;;;;;;5057741;28;20404;-78
2022/08/23 01:52:29;;;;;;;0.00;0.00;;;;;;;;;;5057741;28;20032;-78
2022/08/23 01:54:56;;;;;;;0.00;0.00;;;;;;;;;;5075819;28;20036;-78
2022/08/23 01:57:22;;;;;;;0.00;0.00;;;;;;;;;;5057668;28;20106;-78
2022/08/23 01:59:48;;;;;;;0.00;0.00;;;;;;;;;;5075797;28;20045;-78
2022/08/23 02:02:15;;;;;;;0.00;0.00;;;;;;;;;;5075382;28;20044;-78
2022/08/23 02:04:41;;;;;;;0.00;0.00;;;;;;;;;;5057645;28;20040;-79
2022/08/23 02:07:07;;;;;;;0.00;0.00;;;;;;;;;;5057227;28;20116;-78
2022/08/23 02:09:33;;;;;;;0.00;0.00;;;;;;;;;;5075644;28;20067;-79
2022/08/23 02:11:59;;;;;;;0.00;0.00;;;;;;;;;;5057198;28;20495;-78
2022/08/23 02:14:25;;;;;;;0.00;0.00;;;;;;;;;;5075250;28;20049;-78
2022/08/23 02:16:52;;;;;;;0.00;0.00;;;;;;;;;;5057055;28;20041;-78
2022/08/23 02:19:19;;;;;;;0.00;0.00;;;;;;;;;;5075221;28;20395;-78
2022/08/23 02:21:46;;;;;;;0.00;0.00;;;;;;;;;;5057327;28;20060;-78
2022/08/23 02:24:13;;;;;;;0.00;0.00;;;;;;;;;;5075315;28;20037;-78
2022/08/23 02:26:41;;;;;;;0.10;0.03;;;;;;;;;;5075249;28;20036;-78
2022/08/23 02:29:07;;;;;;;0.00;0.00;;;;;;;;;;5075137;28;20048;-78
2022/08/23 02:31:33;;;;;;;0.00;0.00;;;;;;;;;;5056951;28;20478;-78
2022/08/23 02:34:00;;;;;;;0.00;0.00;;;;;;;;;;5056748;28;20082;-78
2022/08/23 02:36:26;;;;;;;0.00;0.00;;;;;;;;;;5056995;28;20119;-78
2022/08/23 02:38:53;;;;;;;0.00;0.00;;;;;;;;;;5056986;28;20505;-78
2022/08/23 02:41:19;;;;;;;0.00;0.00;;;;;;;;;;5057116;28;20037;-78
2022/08/23 02:43:45;;;;;;;0.00;0.00;;;;;;;;;;5056687;28;20040;-78
2022/08/23 02:46:11;;;;;;;0.00;0.00;;;;;;;;;;5057007;28;20040;-78
2022/08/23 02:48:38;;;;;;;0.00;0.00;;;;;;;;;;5056537;28;20044;-78
2022/08/23 02:51:05;;;;;;;0.00;0.00;;;;;;;;;;5074497;28;20450;-78
2022/08/23 02:53:32;;;;;;;0.00;0.00;;;;;;;;;;5074404;28;20463;-79
2022/08/23 02:55:58;;;;;;;0.00;0.00;;;;;;;;;;5056648;28;20048;-79
2022/08/23 02:58:25;;;;;;;0.00;0.00;;;;;;;;;;5074152;28;20521;-78
2022/08/23 03:00:51;;;;;;;0.00;0.00;;;;;;;;;;5056726;28;20032;-78
2022/08/23 03:03:18;;;;;;;0.00;0.00;;;;;;;;;;5056294;28;20112;-78
2022/08/23 03:05:44;;;;;;;0.00;0.00;;;;;;;;;;5056681;28;20052;-78
2022/08/23 03:08:10;;;;;;;0.00;0.00;;;;;;;;;;5074242;28;20123;-78
2022/08/23 03:10:37;;;;;;;0.00;0.00;;;;;;;;;;5074131;28;20483;-79
2022/08/23 03:13:03;;;;;;;0.00;0.00;;;;;;;;;;5056129;28;20048;-78
2022/08/23 03:15:29;;;;;;;0.00;0.00;;;;;;;;;;5074200;28;20106;-79
2022/08/23 03:17:55;;;;;;;0.00;0.00;;;;;;;;;;5055888;28;20059;-78
2022/08/23 03:20:21;;;;;;;0.00;0.00;;;;;;;;;;5073687;28;20060;-79
2022/08/23 03:22:47;;;;;;;0.00;0.00;;;;;;;;;;5073835;28;20040;-78
2022/08/23 03:25:13;;;;;;;0.00;0.00;;;;;;;;;;5074176;28;20040;-78
2022/08/23 03:27:39;;;;;;;0.00;0.00;;;;;;;;;;5055733;28;20406;-78
2022/08/23 03:30:06;;;;;;;0.00;0.00;;;;;;;;;;5055889;28;20094;-79
2022/08/23 03:32:32;;;;;;;0.00;0.00;;;;;;;;;;5073680;28;20083;-79
2022/08/23 03:34:58;;;;;;;0.00;0.00;;;;;;;;;;5055836;28;20090;-78
2022/08/23 03:37:43;;;;;;;0.00;0.00;;;;;;;;;;5073702;28;20115;-79
2022/08/23 03:40:09;;;;;;;0.00;0.00;;;;;;;;;;5073854;28;20123;-78
2022/08/23 03:42:35;;;;;;;0.00;0.00;;;;;;;;;;5073343;28;20045;-78
2022/08/23 03:45:01;;;;;;;0.00;0.00;;;;;;;;;;5055793;28;20097;-79
2022/08/23 03:47:27;;;;;;;0.00;0.00;;;;;;;;;;5055705;28;20068;-78
2022/08/23 03:49:53;;;;;;;0.00;0.00;;;;;;;;;;5055304;28;20047;-78
2022/08/23 03:52:19;;;;;;;0.00;0.00;;;;;;;;;;5055683;28;20040;-78
2022/08/23 03:54:45;;;;;;;0.00;0.00;;;;;;;;;;5073191;28;20511;-79
2022/08/23 03:57:12;;;;;;;0.00;0.00;;;;;;;;;;5055234;28;20063;-78
2022/08/23 03:59:39;;;;;;;0.00;0.00;;;;;;;;;;5055526;28;20585;-78
2022/08/23 04:02:05;;;;;;;0.00;0.00;;;;;;;;;;5055531;28;20048;-79
2022/08/23 04:04:31;;;;;;;0.00;0.00;;;;;;;;;;5055199;28;20048;-78
2022/08/23 04:06:57;;;;;;;0.00;0.00;;;;;;;;;;5055324;28;20544;-78
2022/08/23 04:09:23;;;;;;;0.00;0.00;;;;;;;;;;5054998;28;20123;-78
2022/08/23 04:11:51;;;;;;;0.00;0.00;;;;;;;;;;5055213;28;20381;-78
2022/08/23 04:14:17;;;;;;;0.00;0.00;;;;;;;;;;5055207;28;20044;-78
2022/08/23 04:16:43;;;;;;;0.00;0.00;;;;;;;;;;5073042;28;20397;-79
2022/08/23 04:19:14;;;;;;;0.00;0.00;;;;;;;;;;5054896;28;20041;-78
2022/08/23 04:21:47;;;;;;;0.00;0.00;;;;;;;;;;5073232;28;20115;-78
2022/08/23 04:24:14;;;;;;;0.00;0.00;;;;;;;;;;5054694;28;20044;-78
2022/08/23 04:26:40;;;;;;;0.00;0.00;;;;;;;;;;5055121;28;20107;-78
2022/08/23 04:29:07;;;;;;;0.00;0.00;;;;;;;;;;5054773;28;20091;-78
2022/08/23 04:31:33;;;;;;;0.00;0.00;;;;;;;;;;5054113;28;20124;-78
2022/08/23 04:33:59;;;;;;;0.00;0.00;;;;;;;;;;5054668;28;20052;-78
2022/08/23 04:36:25;;;;;;;0.00;0.00;;;;;;;;;;5054889;28;20355;-78
2022/08/23 04:38:51;;;;;;;0.00;0.00;;;;;;;;;;5054689;28;20044;-78
2022/08/23 04:44:04;;;;;;;0.00;0.00;;;;;;;;;;5054668;28;20048;-78
2022/08/23 04:46:30;;;;;;;0.00;0.00;;;;;;;;;;5054998;28;20039;-78
2022/08/23 04:48:56;;;;;;;0.00;0.00;;;;;;;;;;5054776;28;20037;-78
2022/08/23 04:51:22;;;;;;;0.00;0.00;;;;;;;;;;5072889;28;20044;-79
2022/08/23 04:53:48;;;;;;;0.00;0.00;;;;;;;;;;5054396;28;20044;-79
2022/08/23 04:56:14;;;;;;;0.00;0.00;;;;;;;;;;5072816;28;20036;-78
2022/08/23 04:58:40;;;;;;;0.00;0.00;;;;;;;;;;5072362;28;20059;-78
2022/08/23 05:01:08;;;;;;;0.00;0.00;;;;;;;;;;5054518;28;20045;-78
2022/08/23 05:03:34;;;;;;;0.00;0.00;;;;;;;;;;5072389;28;20424;-78
2022/08/23 05:06:01;;;;;;;0.00;0.00;;;;;;;;;;5072794;28;20115;-78
2022/08/23 05:08:27;;;;;;;0.00;0.00;;;;;;;;;;5072535;28;20040;-78
2022/08/23 05:10:53;;;;;;;0.00;0.00;;;;;;;;;;5054523;28;20049;-78
2022/08/23 05:13:19;;;;;;;0.00;0.00;;;;;;;;;;5072499;28;20040;-78
2022/08/23 05:15:45;;;;;;;0.00;0.00;;;;;;;;;;5072296;28;20095;-77
2022/08/23 05:18:11;;;;;;;0.00;0.00;;;;;;;;;;5037868;28;20448;-80
2022/08/23 05:20:38;;;;;;;0.00;0.00;;;;;;;;;;5054223;28;20174;-79
2022/08/23 05:23:04;;;;;;;0.00;0.00;;;;;;;;;;5054443;28;20041;-79
2022/08/23 05:25:48;;;;;;;0.00;0.00;;;;;;;;;;5054443;28;20044;-78
2022/08/23 05:28:20;;;;;;;0.00;0.00;;;;;;;;;;5054510;28;20048;-78
2022/08/23 05:30:56;;;;;;;0.00;0.00;;;;;;;;;;5054087;28;20404;-78
2022/08/23 05:33:22;;;;;;;0.00;0.00;;;;;;;;;;5054580;28;20052;-78
2022/08/23 05:35:48;;;;;;;0.00;0.00;;;;;;;;;;5053976;28;20044;-78
2022/08/23 05:38:14;;;;;;;0.00;0.00;;;;;;;;;;5072247;28;20142;-78
2022/08/23 05:40:40;;;;;;;0.00;0.00;;;;;;;;;;5054076;28;20123;-79
2022/08/23 05:43:06;;;;;;;0.00;0.00;;;;;;;;;;5056020;28;20471;-78
2022/08/23 05:45:32;;;;;;;0.00;0.00;;;;;;;;;;5075918;28;20221;-77
2022/08/23 05:47:58;;;;;;;0.00;0.00;;;;;;;;;;5058019;28;20095;-79
2022/08/23 05:50:24;;;;;;;0.00;0.00;;;;;;;;;;5075297;28;20139;-79
2022/08/23 05:52:50;;;;;;;0.00;0.00;;;;;;;;;;5057457;28;20043;-78
2022/08/23 05:55:16;;;;;;;0.00;0.00;;;;;;;;;;5040530;28;20048;-77
2022/08/23 05:57:42;;;;;;;0.00;0.00;;;;;;;;;;5057274;28;20091;-80
2022/08/23 06:00:13;;;;;;;0.00;0.00;;;;;;;;;;5057375;28;20048;-77
2022/08/23 06:02:39;;;;;;;0.00;0.00;;;;;;;;;;5057216;28;20400;-78
2022/08/23 06:05:05;;;;;;;0.00;0.00;;;;;;;;;;5075008;28;20040;-78
2022/08/23 06:07:33;;;;;;;0.00;0.00;;;;;;;;;;5057185;28;20056;-78
2022/08/23 06:09:59;;;;;;;0.00;0.00;;;;;;;;;;5056642;28;20545;-78
2022/08/23 06:12:25;;;;;;;0.00;0.00;;;;;;;;;;5057077;28;20051;-78
2022/08/23 06:14:51;;;;;;;0.00;0.00;;;;;;;;;;5074521;28;20487;-79
2022/08/23 06:17:17;;;;;;;0.00;0.00;;;;;;;;;;5056988;28;20068;-78
2022/08/23 06:19:43;;;;;;;0.00;0.00;;;;;;;;;;5057103;28;20072;-78
2022/08/23 06:22:09;;;;;;;0.00;0.00;;;;;;;;;;5057344;28;20040;-78
2022/08/23 06:24:35;;;;;;;0.00;0.00;;;;;;;;;;5039811;28;20065;-78
2022/08/23 06:27:01;;;;;;;0.00;0.00;;;;;;;;;;5074960;28;20051;-78
2022/08/23 06:29:27;;;;;;;0.00;0.00;;;;;;;;;;5056920;28;20040;-78
2022/08/23 06:31:54;;;;;;;0.00;0.00;;;;;;;;;;5057027;28;20059;-78
2022/08/23 06:34:34;;;;;;;0.00;0.00;;;;;;;;;;5056749;28;20044;-78
2022/08/23 06:37:03;;;;;;;0.00;0.00;;;;;;;;;;5075060;28;20438;-78
2022/08/23 06:39:30;;;;;;;0.00;0.00;;;;;;;;;;5056965;28;20557;-78
2022/08/23 06:42:00;;;;;;;0.32;0.03;;;;;;;;;;5074968;28;20036;-78
2022/08/23 06:44:26;;;;;;;0.00;0.00;;;;;;;;;;5056925;28;20049;-78
2022/08/23 06:46:55;;;;;;;0.00;0.00;;;;;;;;;;5074920;28;20051;-79
2022/08/23 06:49:21;;;;;;;0.00;0.00;;;;;;;;;;5057001;28;20036;-78
2022/08/23 06:51:52;;;;;;;0.00;0.00;;;;;;;;;;5056700;28;20128;-78
2022/08/23 06:54:19;;;;;;;0.00;0.00;;;;;;;;;;5055650;28;20430;-78
2022/08/23 06:56:46;;;;;;;0.08;0.08;;;;;;;;;;5056686;28;20502;-77
2022/08/23 06:59:12;;;;;;;0.00;0.00;;;;;;;;;;5074276;28;20132;-78
2022/08/23 07:01:40;;;;;;;0.22;0.10;;;;;;;;;;5056573;28;20460;-78
2022/08/23 07:04:07;;;;;;;0.00;0.00;;;;;;;;;;5074547;28;20059;-77
2022/08/23 07:06:33;;;;;;;0.00;0.00;;;;;;;;;;5056338;28;20479;-78
2022/08/23 07:09:00;;;;;;;0.00;0.00;;;;;;;;;;5074516;28;20035;-77
2022/08/23 07:11:30;;;;;;;0.00;0.00;;;;;;;;;;5056125;28;20564;-79
2022/08/23 07:13:58;;;;;;;0.00;0.00;;;;;;;;;;5056438;28;20051;-79
2022/08/23 07:16:25;;;;;;;0.00;0.00;;;;;;;;;;5056281;28;20041;-79
2022/08/23 07:18:51;;;;;;;0.00;0.00;;;;;;;;;;5056235;28;20395;-79
2022/08/23 07:21:18;;;;;;;0.00;0.00;;;;;;;;;;5055968;28;20048;-79
2022/08/23 07:23:44;;;;;;;0.00;0.00;;;;;;;;;;5056094;28;20119;-77
2022/08/23 07:26:11;;;;;;;0.00;0.00;;;;;;;;;;5055900;28;20114;-80
2022/08/23 07:28:38;;;;;;;0.00;0.00;;;;;;;;;;5074130;28;20047;-79
2022/08/23 07:31:12;;;;;;;0.00;0.00;;;;;;;;;;5039249;28;20036;-79
2022/08/23 07:33:38;;;;;;;0.00;0.00;;;;;;;;;;5039409;28;20419;-79
2022/08/23 07:36:04;;;;;;;0.00;0.00;;;;;;;;;;5055544;28;20047;-79
2022/08/23 07:38:30;;;;;;;0.00;0.00;;;;;;;;;;5073675;28;20124;-79
2022/08/23 07:40:57;;;;;;;0.00;0.00;;;;;;;;;;5055732;28;20127;-80
2022/08/23 07:43:23;;;;;;;0.00;0.00;;;;;;;;;;5055682;28;20513;-80
2022/08/23 07:45:49;;;;;;;0.00;0.00;;;;;;;;;;5055453;28;20044;-79
2022/08/23 07:48:15;;;;;;;0.00;0.00;;;;;;;;;;5073644;28;20047;-80
2022/08/23 07:50:41;;;;;;;0.00;0.00;;;;;;;;;;5073577;28;20382;-80
2022/08/23 07:53:08;;;;;;;0.00;0.00;;;;;;;;;;5073556;28;20040;-79
2022/08/23 07:55:34;;;;;;;0.00;0.00;;;;;;;;;;5055196;28;20427;-80
2022/08/23 07:58:00;;;;;;;0.00;0.00;;;;;;;;;;5073268;28;20499;-79
2022/08/23 08:00:26;;;;;;;0.00;0.00;;;;;;;;;;5073316;28;20051;-79
2022/08/23 08:02:52;;;;;;;0.00;0.00;;;;;;;;;;5073188;28;20119;-79
2022/08/23 08:05:18;;;;;;;0.00;0.00;;;;;;;;;;5072823;28;20486;-79
2022/08/23 08:07:44;;;;;;;0.00;0.00;;;;;;;;;;5073438;28;20040;-79
2022/08/23 08:10:11;;;;;;;0.00;0.00;;;;;;;;;;5055279;28;20056;-79
2022/08/23 08:12:37;;;;;;;0.00;0.00;;;;;;;;;;5055277;28;20040;-80
2022/08/23 08:15:03;;;;;;;0.00;0.00;;;;;;;;;;5038471;28;20491;-79
2022/08/23 08:17:29;;;;;;;0.00;0.00;;;;;;;;;;5073099;28;20040;-80
2022/08/23 08:19:55;;;;;;;0.00;0.00;;;;;;;;;;5055364;28;20028;-79
2022/08/23 08:22:22;;;;;;;0.00;0.00;;;;;;;;;;5072950;28;20036;-78
2022/08/23 08:24:48;;;;;;;0.00;0.00;;;;;;;;;;5073143;28;20048;-79
2022/08/23 08:27:14;;;;;;;0.47;0.00;;;;;;;;;;5054824;28;20047;-79
2022/08/23 08:29:41;;;;;;;0.00;0.00;;;;;;;;;;5072818;28;20444;-78
2022/08/23 08:32:07;;;;;;;0.00;0.00;;;;;;;;;;5054681;28;20120;-80
2022/08/23 08:34:33;;;;;;;0.00;0.00;;;;;;;;;;5072795;28;20541;-80
2022/08/23 08:36:59;;;;;;;0.00;0.00;;;;;;;;;;5072799;28;20040;-79
2022/08/23 08:39:27;;;;;;;0.00;0.00;;;;;;;;;;5072965;28;20044;-79
2022/08/23 08:41:56;;;;;;;0.00;0.00;;;;;;;;;;5054829;28;20123;-79
2022/08/23 08:44:24;;;;;;;0.00;0.00;;;;;;;;;;5055026;28;20060;-79
2022/08/23 08:46:52;;;;;;;0.00;0.00;;;;;;;;;;5054602;28;20174;-79
2022/08/23 08:49:34;;;;;;;0.00;0.00;;;;;;;;;;5073010;28;20048;-79
2022/08/23 08:52:21;;;;;;;0.00;0.00;;;;;;;;;;5054771;28;20036;-78
2022/08/23 08:54:49;;;;;;;0.00;0.00;;;;;;;;;;5055262;28;20178;-79
2022/08/23 08:57:18;;;;;;;0.00;0.00;;;;;;;;;;5054252;28;20456;-80
2022/08/23 08:59:50;;;;;;;0.00;0.00;;;;;;;;;;5054505;28;20049;-79
2022/08/23 09:02:18;;;;;;;0.00;0.00;;;;;;;;;;5054153;28;20066;-79
2022/08/23 09:04:45;;;;;;;0.00;0.00;;;;;;;;;;5054915;28;20081;-80
2022/08/23 09:07:11;;;;;;;0.00;0.00;;;;;;;;;;5054697;28;20107;-80
2022/08/23 09:09:37;;;;;;;0.00;0.00;;;;;;;;;;5072723;28;20519;-80
2022/08/23 09:12:21;;;;;;;0.00;0.00;;;;;;;;;;5072515;28;20372;-80
2022/08/23 09:15:14;;;;;;;0.00;0.00;;;;;;;;;;5054556;28;20098;-79
2022/08/23 09:17:46;;;;;;;0.00;0.00;;;;;;;;;;5074870;28;20037;-80
2022/08/23 09:20:14;;;;;;;0.00;0.00;;;;;;;;;;5058418;28;20048;-79
2022/08/23 09:22:42;;;;;;;0.00;0.00;;;;;;;;;;5058400;28;20098;-80
2022/08/23 09:25:11;;;;;;;0.00;0.00;;;;;;;;;;5058552;28;20557;-80
2022/08/23 09:27:38;;;;;;;0.00;0.00;;;;;;;;;;5076353;28;20437;-79
2022/08/23 09:30:05;;;;;;;0.00;0.00;;;;;;;;;;5058551;28;20051;-78
2022/08/23 09:32:36;;;;;;;0.00;0.00;;;;;;;;;;5076096;28;20033;-79
2022/08/23 09:35:06;;;;;;;0.00;0.00;;;;;;;;;;5076372;28;20074;-79
2022/08/23 09:37:44;;;;;;;0.00;0.00;;;;;;;;;;5058189;28;20510;-79
2022/08/23 09:40:14;;;;;;;0.00;0.00;;;;;;;;;;5058184;28;20040;-79
2022/08/23 09:42:40;;;;;;;0.00;0.00;;;;;;;;;;5075954;28;20028;-78
2022/08/23 09:45:24;;;;;;;0.00;0.00;;;;;;;;;;5076172;28;20048;-79
2022/08/23 09:47:50;;;;;;;0.00;0.00;;;;;;;;;;5075948;28;20102;-80
2022/08/23 09:50:24;;;;;;;0.00;0.00;;;;;;;;;;5058686;28;20119;-79
2022/08/23 09:52:54;;;;;;;0.00;0.00;;;;;;;;;;5041227;28;20113;-79
2022/08/23 09:55:30;;;;;;;0.00;0.00;;;;;;;;;;5075545;28;20049;-79
2022/08/23 09:57:57;;;;;;;0.00;0.00;;;;;;;;;;5075516;28;20086;-79
2022/08/23 10:00:32;;;;;;;0.00;0.00;;;;;;;;;;5057683;28;20083;-80
2022/08/23 10:02:58;;;;;;;;;;;;;;;;;;5041218;28;20037;-79
2022/08/23 10:05:30;;;;;;;0.00;0.00;;;;;;;;;;5075412;28;19917;-79
2022/08/23 10:08:00;;;;;;;0.10;0.00;;;;;;;;;;5075095;28;20445;-80
2022/08/23 10:10:42;;;;;;;0.00;0.00;;;;;;;;;;5075689;28;20067;-79
2022/08/23 10:13:08;;;;;;;0.00;0.00;;;;;;;;;;5040659;28;20063;-80
2022/08/23 10:15:37;;;;;;;0.00;0.00;;;;;;;;;;5057713;28;20051;-80
2022/08/23 10:18:11;;;;;;;0.00;0.00;;;;;;;;;;5057216;28;20051;-78
2022/08/23 10:20:40;;;;;;;0.00;0.00;;;;;;;;;;5057372;28;20037;-81
2022/08/23 10:23:06;;;;;;;0.08;0.00;;;;;;;;;;5056956;28;20143;-81
2022/08/23 10:25:38;;;;;;;0.00;0.00;;;;;;;;;;5075479;28;20036;-81
2022/08/23 10:30:59;;;;;;;0.00;0.00;;;;;;;;;;5074791;28;20041;-80
2022/08/23 10:33:31;;;;;;;0.00;0.00;;;;;;;;;;5074977;28;20050;-81
2022/08/23 10:36:20;;;;;;;0.00;0.00;;;;;;;;;;5075121;28;20045;-80
2022/08/23 10:38:46;;;;;;;0.00;0.00;;;;;;;;;;5074846;28;20480;-81
2022/08/23 10:41:20;;;;;;;0.00;0.00;;;;;;;;;;5056892;28;20043;-81
2022/08/23 10:43:56;;;;;;;0.00;0.00;;;;;;;;;;5057072;28;20187;-81
2022/08/23 10:46:22;;;;;;;0.00;0.00;;;;;;;;;;5056903;28;20052;-81
2022/08/23 10:48:54;;;;;;;0.00;0.00;;;;;;;;;;5056964;28;20044;-80
2022/08/23 10:51:28;;;;;;;0.28;0.00;;;;;;;;;;5074839;28;20037;-81
2022/08/23 10:53:59;;;;;;;0.00;0.00;;;;;;;;;;5056845;28;20044;-81
2022/08/23 10:56:25;;;;;;;0.00;0.00;;;;;;;;;;5056653;28;20044;-82
2022/08/23 10:59:03;;;;;;;0.00;0.00;;;;;;;;;;5074227;28;20094;-80
2022/08/23 11:01:44;;;;;;;0.00;0.00;;;;;;;;;;5074657;28;20029;-81
2022/08/23 11:04:29;;;;;;;0.00;0.00;;;;;;;;;;5056485;28;20041;-81
2022/08/23 11:06:59;;;;;;;0.00;0.00;;;;;;;;;;5074316;28;20436;-80
2022/08/23 11:09:25;;;;;;;0.00;0.00;;;;;;;;;;5056710;28;20032;-81
2022/08/23 11:12:09;;;;;;;0.00;0.00;;;;;;;;;;5056374;28;20360;-81
2022/08/23 11:14:41;;;;;;;0.00;0.00;;;;;;;;;;5055482;28;20452;-84
2022/08/23 11:17:08;;;;;;;0.00;0.00;;;;;;;;;;5039365;28;20328;-80
2022/08/23 11:19:55;;;;;;;0.00;0.00;;;;;;;;;;5056516;28;20064;-81
2022/08/23 11:22:23;;;;;;;0.00;0.00;;;;;;;;;;5074008;28;20041;-80
2022/08/23 11:24:54;;;;;;;0.00;0.00;;;;;;;;;;5074072;28;20048;-79
2022/08/23 11:27:31;;;;;;;0.00;0.00;;;;;;;;;;5074012;28;20041;-81
2022/08/23 11:29:57;;;;;;;0.00;0.00;;;;;;;;;;5074157;28;20041;-82
2022/08/23 11:32:23;;;;;;;0.00;0.00;;;;;;;;;;5055749;28;20173;-81
2022/08/23 11:34:58;;;;;;;0.00;0.00;;;;;;;;;;5056005;28;20123;-80
2022/08/23 11:37:27;;;;;;;0.00;0.00;;;;;;;;;;5073702;28;20158;-81
2022/08/23 11:39:56;;;;;;;0.00;0.00;;;;;;;;;;5073480;28;20048;-80
2022/08/23 11:42:23;;;;;;;0.00;0.00;;;;;;;;;;5039116;28;20119;-80
2022/08/23 11:44:49;;;;;;;0.00;0.00;;;;;;;;;;5055507;28;20509;-81
2022/08/23 11:47:26;;;;;;;0.00;0.00;;;;;;;;;;5055967;28;20361;-82
2022/08/23 11:49:58;;;;;;;0.00;0.00;;;;;;;;;;5055804;28;20048;-81
2022/08/23 11:52:30;;;;;;;0.00;0.00;;;;;;;;;;5073476;28;20479;-81
2022/08/23 11:55:05;;;;;;;0.00;0.00;;;;;;;;;;5073304;28;20483;-81
2022/08/23 11:57:31;;;;;;;;;;;;;;;;;;5055559;28;20510;-82
2022/08/23 11:59:57;;;;;;;0.00;0.00;;;;;;;;;;5055927;28;20338;-81
2022/08/23 12:02:30;;;;;;;0.00;0.00;;;;;;;;;;5073461;28;20072;-81
2022/08/23 12:04:58;;;;;;;0.00;0.00;;;;;;;;;;5055481;28;20059;-81
2022/08/23 12:07:42;;;;;;;0.20;0.00;;;;;;;;;;5073402;28;20094;-81
2022/08/23 12:10:09;;;;;;;0.00;0.00;;;;;;;;;;5073481;28;20444;-80
2022/08/23 12:12:35;;;;;;;0.00;0.00;;;;;;;;;;5055276;28;20483;-81
2022/08/23 12:15:04;;;;;;;0.00;0.00;;;;;;;;;;5073059;28;20171;-81
2022/08/23 12:17:30;;;;;;;0.00;0.00;;;;;;;;;;5073293;28;20041;-81
2022/08/23 12:20:08;;;;;;;0.00;0.00;;;;;;;;;;5054945;28;20055;-81
2022/08/23 12:22:51;;;;;;;0.00;0.00;;;;;;;;;;5055181;28;20040;-80
2022/08/23 12:25:18;;;;;;;0.00;0.00;;;;;;;;;;5038918;28;20385;-82
2022/08/23 12:27:46;;;;;;;0.00;0.00;;;;;;;;;;5054613;28;20044;-80
2022/08/23 12:30:23;;;;;;;0.00;0.00;;;;;;;;;;5055117;28;20048;-81
2022/08/23 12:32:49;;;;;;;0.00;0.00;;;;;;;;;;5073007;28;20059;-83
2022/08/23 12:35:21;;;;;;;0.00;0.00;;;;;;;;;;5073089;28;20040;-81
2022/08/23 12:37:53;;;;;;;0.00;0.00;;;;;;;;;;5072975;28;20040;-82
2022/08/23 12:40:27;;;;;;;0.00;0.00;;;;;;;;;;5054898;28;20425;-82
2022/08/23 12:43:02;;;;;;;0.00;0.00;;;;;;;;;;5054652;28;20040;-81
2022/08/23 12:45:35;;;;;;;0.00;0.00;;;;;;;;;;5054836;28;20123;-81
2022/08/23 12:48:02;;;;;;;0.00;0.00;;;;;;;;;;5054866;28;20048;-81
2022/08/23 12:50:31;;;;;;;0.00;0.00;;;;;;;;;;5072868;28;20048;-81
2022/08/23 12:52:58;;;;;;;0.00;0.00;;;;;;;;;;5072022;28;20044;-87
2022/08/23 12:55:29;;;;;;;0.00;0.00;;;;;;;;;;5054497;28;20127;-79
2022/08/23 12:57:56;;;;;;;0.00;0.00;;;;;;;;;;5072716;28;20045;-81
2022/08/23 13:00:28;;;;;;;0.00;0.00;;;;;;;;;;5072732;28;20052;-82
2022/08/23 13:02:59;;;;;;;0.00;0.00;;;;;;;;;;5072468;28;20072;-81
2022/08/23 13:05:25;;;;;;;0.00;0.00;;;;;;;;;;5072654;28;20041;-81
2022/08/23 13:07:51;;;;;;;0.00;0.00;;;;;;;;;;5054613;28;20045;-81
2022/08/23 13:10:18;;;;;;;0.00;0.00;;;;;;;;;;5072492;28;20252;-85
2022/08/23 13:12:44;;;;;;;0.00;0.00;;;;;;;;;;5072895;28;20040;-82
2022/08/23 13:15:10;;;;;;;0.00;0.00;;;;;;;;;;5054696;28;20040;-91
2022/08/23 13:17:39;;;;;;;0.00;0.00;;;;;;;;;;5055286;28;20058;-84
2022/08/23 13:20:09;;;;;;;0.00;0.00;;;;;;;;;;5054049;28;20491;-83
2022/08/23 13:22:36;;;;;;;0.00;0.00;;;;;;;;;;5072369;28;20055;-80
2022/08/23 13:25:05;;;;;;;0.00;0.00;;;;;;;;;;5072359;28;20060;-80
2022/08/23 13:27:35;;;;;;;0.00;0.00;;;;;;;;;;5054597;28;20055;-80
2022/08/23 13:30:08;;;;;;;0.00;0.00;;;;;;;;;;5054066;28;20068;-80
2022/08/23 13:32:36;;;;;;;0.00;0.00;;;;;;;;;;5054516;28;20329;-81
2022/08/23 13:35:21;;;;;;;0.00;0.00;;;;;;;;;;5072183;28;20045;-87
2022/08/23 13:37:47;;;;;;;0.00;0.00;;;;;;;;;;5054547;28;20391;-82
2022/08/23 13:40:21;;;;;;;0.00;0.00;;;;;;;;;;5072592;28;20071;-84
2022/08/23 13:42:51;;;;;;;0.00;0.00;;;;;;;;;;5054373;28;20563;-82
2022/08/23 13:45:29;;;;;;;0.00;0.00;;;;;;;;;;5037516;28;20066;-81
2022/08/23 13:47:57;;;;;;;0.00;0.00;;;;;;;;;;5072467;28;20403;-82
2022/08/23 13:50:25;;;;;;;0.00;0.00;;;;;;;;;;5054523;28;20048;-82
2022/08/23 13:52:51;;;;;;;0.00;0.00;;;;;;;;;;5054090;28;20105;-93
2022/08/23 13:55:17;;;;;;;0.00;0.00;;;;;;;;;;5075561;28;20044;-92
2022/08/23 13:57:43;;;;;;;0.00;0.00;;;;;;;;;;5039064;28;20056;-81
2022/08/23 14:00:10;;;;;;;0.00;0.00;;;;;;;;;;5054644;28;20159;-83
2022/08/23 14:02:37;;;;;;;0.00;0.00;;;;;;;;;;5053972;28;20501;-84
2022/08/23 14:05:07;;;;;;;0.00;0.00;;;;;;;;;;5057261;28;20076;-90
2022/08/23 14:07:34;;;;;;;0.00;0.00;;;;;;;;;;5058004;28;20053;-87
2022/08/23 14:10:00;;;;;;;0.00;0.00;;;;;;;;;;5057520;28;20101;-84
2022/08/23 14:12:27;;;;;;;0.00;0.00;;;;;;;;;;5075649;28;20063;-86
2022/08/23 14:14:54;;;;;;;0.00;0.00;;;;;;;;;;5057242;28;20467;-83
2022/08/23 14:17:20;;;;;;;0.00;0.00;;;;;;;;;;5075860;28;20120;-87
2022/08/23 14:19:47;;;;;;;0.00;0.00;;;;;;;;;;5057367;28;20090;-87
2022/08/23 14:22:13;;;;;;;0.00;0.00;;;;;;;;;;5075248;28;20499;-84
2022/08/23 14:24:40;;;;;;;0.00;0.00;;;;;;;;;;5057287;28;20044;-87
2022/08/23 14:27:06;;;;;;;0.00;0.00;;;;;;;;;;5056408;28;20055;-88
2022/08/23 14:29:32;;;;;;;0.00;0.00;;;;;;;;;;5057053;28;20494;-90
2022/08/23 14:31:58;;;;;;;0.00;0.00;;;;;;;;;;5057861;28;20048;-87
2022/08/23 14:34:25;;;;;;;0.00;0.00;;;;;;;;;;5074857;28;20068;-88
2022/08/23 14:36:52;;;;;;;0.00;0.00;;;;;;;;;;5057247;28;20040;-88
2022/08/23 14:39:19;;;;;;;0.00;0.00;;;;;;;;;;5057091;28;20461;-91
2022/08/23 14:41:45;;;;;;;0.00;0.00;;;;;;;;;;5056962;28;20101;-89
2022/08/23 14:44:12;;;;;;;0.00;0.00;;;;;;;;;;5040089;28;20036;-89
2022/08/23 14:46:38;;;;;;;0.00;0.00;;;;;;;;;;5056944;28;20093;-88
2022/08/23 14:49:05;;;;;;;0.00;0.00;;;;;;;;;;5075132;28;20135;-88
2022/08/23 14:51:35;;;;;;;0.00;0.00;;;;;;;;;;5056551;28;20072;-89
2022/08/23 14:54:03;;;;;;;0.00;0.00;;;;;;;;;;5074689;28;20170;-90
2022/08/23 14:56:30;;;;;;;0.00;0.00;;;;;;;;;;5056011;28;20076;-89
2022/08/23 14:58:56;;;;;;;0.00;0.00;;;;;;;;;;5057045;28;20049;-88
2022/08/23 15:01:22;;;;;;;0.00;0.00;;;;;;;;;;5056799;28;20369;-87